sensor_id;sensor_type;location;lat;lon;timestamp;temperature;humidity
20284;DHT22;10301;50.832;4.080;2023-03-01T00:01:06;1.10;1.00
20284;DHT22;10301;50.832;4.080;2023-03-01T00:03:32;1.20;1.00
20284;DHT22;10301;50.832;4.080;2023-03-01T00:05:58;1.10;1.00
20284;DHT22;10301;50.832;4.080;2023-03-01T00:08:24;1.20;1.00
20284;DHT22;10301;50.832;4.080;2023-03-01T00:11:07;1.30;1.00
20284;DHT22;10301;50.832;4.080;2023-03-01T00:13:34;1.30;1.00
20284;DHT22;10301;50.832;4.080;2023-03-01T00:16:02;1.50;99.90
20284;DHT22;10301;50.832;4.080;2023-03-01T00:18:28;1.40;99.90
20284;DHT22;10301;50.832;4.080;2023-03-01T00:20:54;1.40;99.90
20284;DHT22;10301;50.832;4.080;2023-03-01T00:23:21;1.30;1.00
20284;DHT22;10301;50.832;4.080;2023-03-01T00:25:47;1.20;1.00
20284;DHT22;10301;50.832;4.080;2023-03-01T00:28:13;1.30;1.00
20284;DHT22;10301;50.832;4.080;2023-03-01T00:30:38;1.20;1.00
20284;DHT22;10301;50.832;4.080;2023-03-01T00:33:04;1.20;1.00
20284;DHT22;10301;50.832;4.080;2023-03-01T00:35:32;1.10;1.00
20284;DHT22;10301;50.832;4.080;2023-03-01T00:37:57;1.10;1.00
20284;DHT22;10301;50.832;4.080;2023-03-01T00:40:24;1.10;1.00
20284;DHT22;10301;50.832;4.080;2023-03-01T00:42:50;1.10;1.00
20284;DHT22;10301;50.832;4.080;2023-03-01T00:45:16;1.00;1.00
20284;DHT22;10301;50.832;4.080;2023-03-01T00:47:42;1.00;1.00
20284;DHT22;10301;50.832;4.080;2023-03-01T00:50:08;0.80;99.90
20284;DHT22;10301;50.832;4.080;2023-03-01T00:52:35;0.90;99.90
20284;DHT22;10301;50.832;4.080;2023-03-01T00:55:00;0.80;99.90
20284;DHT22;10301;50.832;4.080;2023-03-01T00:57:26;0.70;1.00
20284;DHT22;10301;50.832;4.080;2023-03-01T00:59:52;0.90;1.00
20284;DHT22;10301;50.832;4.080;2023-03-01T01:02:18;1.00;1.00
20284;DHT22;10301;50.832;4.080;2023-03-01T01:04:45;1.00;1.00
20284;DHT22;10301;50.832;4.080;2023-03-01T01:07:11;1.00;99.90
20284;DHT22;10301;50.832;4.080;2023-03-01T01:09:37;1.10;99.90
20284;DHT22;10301;50.832;4.080;2023-03-01T01:12:04;1.00;99.90
20284;DHT22;10301;50.832;4.080;2023-03-01T01:14:29;0.70;1.00
20284;DHT22;10301;50.832;4.080;2023-03-01T01:16:55;0.50;1.00
20284;DHT22;10301;50.832;4.080;2023-03-01T01:19:21;0.50;1.00
20284;DHT22;10301;50.832;4.080;2023-03-01T01:21:48;0.60;1.00
20284;DHT22;10301;50.832;4.080;2023-03-01T01:24:15;0.50;1.00
20284;DHT22;10301;50.832;4.080;2023-03-01T01:26:42;0.60;1.00
20284;DHT22;10301;50.832;4.080;2023-03-01T01:29:08;0.70;1.00
20284;DHT22;10301;50.832;4.080;2023-03-01T01:31:35;0.80;1.00
20284;DHT22;10301;50.832;4.080;2023-03-01T01:34:02;0.80;99.90
20284;DHT22;10301;50.832;4.080;2023-03-01T01:36:28;0.80;99.90
20284;DHT22;10301;50.832;4.080;2023-03-01T01:38:54;0.70;99.90
20284;DHT22;10301;50.832;4.080;2023-03-01T01:41:21;0.60;1.00
20284;DHT22;10301;50.832;4.080;2023-03-01T01:43:49;0.50;1.00
20284;DHT22;10301;50.832;4.080;2023-03-01T01:46:37;0.40;1.00
20284;DHT22;10301;50.832;4.080;2023-03-01T01:49:07;0.30;99.90
20284;DHT22;10301;50.832;4.080;2023-03-01T01:51:40;0.30;99.90
20284;DHT22;10301;50.832;4.080;2023-03-01T01:54:14;0.40;1.00
20284;DHT22;10301;50.832;4.080;2023-03-01T01:56:44;0.50;99.90
20284;DHT22;10301;50.832;4.080;2023-03-01T01:59:12;0.70;1.00
20284;DHT22;10301;50.832;4.080;2023-03-01T02:01:37;0.70;1.00
20284;DHT22;10301;50.832;4.080;2023-03-01T02:04:03;0.60;1.00
20284;DHT22;10301;50.832;4.080;2023-03-01T02:06:36;0.40;99.90
20284;DHT22;10301;50.832;4.080;2023-03-01T02:09:07;0.30;1.00
20284;DHT22;10301;50.832;4.080;2023-03-01T02:11:37;0.30;1.00
20284;DHT22;10301;50.832;4.080;2023-03-01T02:14:03;0.20;1.00
20284;DHT22;10301;50.832;4.080;2023-03-01T02:16:29;0.10;1.00
20284;DHT22;10301;50.832;4.080;2023-03-01T02:18:57;0.10;1.00
20284;DHT22;10301;50.832;4.080;2023-03-01T02:21:44;0.10;1.00
20284;DHT22;10301;50.832;4.080;2023-03-01T02:24:40;0.10;1.00
20284;DHT22;10301;50.832;4.080;2023-03-01T02:27:08;0.10;1.00
20284;DHT22;10301;50.832;4.080;2023-03-01T02:29:34;0.10;1.00
20284;DHT22;10301;50.832;4.080;2023-03-01T02:32:02;0.10;1.00
20284;DHT22;10301;50.832;4.080;2023-03-01T02:34:30;0.10;3.00
20284;DHT22;10301;50.832;4.080;2023-03-01T02:37:08;0.10;1.00
20284;DHT22;10301;50.832;4.080;2023-03-01T02:39:41;0.00;92.60
20284;DHT22;10301;50.832;4.080;2023-03-01T02:42:13;0.20;61.30
20284;DHT22;10301;50.832;4.080;2023-03-01T02:44:40;0.20;1.00
20284;DHT22;10301;50.832;4.080;2023-03-01T02:47:05;0.10;1.00
20284;DHT22;10301;50.832;4.080;2023-03-01T02:49:34;0.20;1.00
20284;DHT22;10301;50.832;4.080;2023-03-01T02:54:33;0.20;1.00
20284;DHT22;10301;50.832;4.080;2023-03-01T02:57:02;0.20;1.00
20284;DHT22;10301;50.832;4.080;2023-03-01T02:59:31;0.30;1.00
20284;DHT22;10301;50.832;4.080;2023-03-01T03:02:00;0.50;1.00
20284;DHT22;10301;50.832;4.080;2023-03-01T03:04:26;0.40;1.00
20284;DHT22;10301;50.832;4.080;2023-03-01T03:06:52;0.30;1.00
20284;DHT22;10301;50.832;4.080;2023-03-01T03:09:18;0.10;1.00
20284;DHT22;10301;50.832;4.080;2023-03-01T03:11:44;0.10;1.00
20284;DHT22;10301;50.832;4.080;2023-03-01T03:14:13;0.10;1.00
20284;DHT22;10301;50.832;4.080;2023-03-01T03:16:43;0.10;31.30
20284;DHT22;10301;50.832;4.080;2023-03-01T03:19:10;0.00;30.80
20284;DHT22;10301;50.832;4.080;2023-03-01T03:21:36;0.10;30.00
20284;DHT22;10301;50.832;4.080;2023-03-01T03:24:03;0.10;2.20
20284;DHT22;10301;50.832;4.080;2023-03-01T03:26:29;0.20;1.00
20284;DHT22;10301;50.832;4.080;2023-03-01T03:28:55;0.00;1.00
20284;DHT22;10301;50.832;4.080;2023-03-01T03:31:21;0.00;39.40
20284;DHT22;10301;50.832;4.080;2023-03-01T03:33:46;-0.10;99.90
20284;DHT22;10301;50.832;4.080;2023-03-01T03:36:17;-0.10;99.90
20284;DHT22;10301;50.832;4.080;2023-03-01T03:38:44;0.10;99.90
20284;DHT22;10301;50.832;4.080;2023-03-01T03:41:11;0.10;1.00
20284;DHT22;10301;50.832;4.080;2023-03-01T03:43:39;0.00;1.00
20284;DHT22;10301;50.832;4.080;2023-03-01T03:46:05;0.10;99.90
20284;DHT22;10301;50.832;4.080;2023-03-01T03:48:33;0.20;1.00
20284;DHT22;10301;50.832;4.080;2023-03-01T03:50:59;0.30;1.00
20284;DHT22;10301;50.832;4.080;2023-03-01T03:53:26;0.40;1.00
20284;DHT22;10301;50.832;4.080;2023-03-01T03:55:52;0.20;1.00
20284;DHT22;10301;50.832;4.080;2023-03-01T03:58:20;0.10;1.00
20284;DHT22;10301;50.832;4.080;2023-03-01T04:00:47;-0.10;1.00
20284;DHT22;10301;50.832;4.080;2023-03-01T04:03:15;-0.10;99.90
20284;DHT22;10301;50.832;4.080;2023-03-01T04:05:41;-0.10;99.90
20284;DHT22;10301;50.832;4.080;2023-03-01T04:08:08;-0.30;99.90
20284;DHT22;10301;50.832;4.080;2023-03-01T04:10:42;-0.40;99.90
20284;DHT22;10301;50.832;4.080;2023-03-01T04:13:15;-0.40;99.90
20284;DHT22;10301;50.832;4.080;2023-03-01T04:15:41;-0.40;1.00
20284;DHT22;10301;50.832;4.080;2023-03-01T04:18:15;-0.30;1.00
20284;DHT22;10301;50.832;4.080;2023-03-01T04:20:42;-0.30;1.00
20284;DHT22;10301;50.832;4.080;2023-03-01T04:25:46;-0.10;99.90
20284;DHT22;10301;50.832;4.080;2023-03-01T04:28:15;-0.10;99.90
20284;DHT22;10301;50.832;4.080;2023-03-01T04:30:41;0.00;99.90
20284;DHT22;10301;50.832;4.080;2023-03-01T04:33:08;0.00;99.90
20284;DHT22;10301;50.832;4.080;2023-03-01T04:35:35;0.00;99.90
20284;DHT22;10301;50.832;4.080;2023-03-01T04:38:01;0.00;99.90
20284;DHT22;10301;50.832;4.080;2023-03-01T04:40:27;0.10;99.90
20284;DHT22;10301;50.832;4.080;2023-03-01T04:42:53;0.10;78.30
20284;DHT22;10301;50.832;4.080;2023-03-01T04:45:18;0.10;17.80
20284;DHT22;10301;50.832;4.080;2023-03-01T04:47:45;0.10;31.30
20284;DHT22;10301;50.832;4.080;2023-03-01T04:50:14;0.10;73.60
20284;DHT22;10301;50.832;4.080;2023-03-01T04:52:40;0.00;99.90
20284;DHT22;10301;50.832;4.080;2023-03-01T04:55:06;-0.20;99.90
20284;DHT22;10301;50.832;4.080;2023-03-01T04:57:32;-0.40;99.90
20284;DHT22;10301;50.832;4.080;2023-03-01T04:59:57;-0.50;1.00
20284;DHT22;10301;50.832;4.080;2023-03-01T05:02:23;-0.60;1.00
20284;DHT22;10301;50.832;4.080;2023-03-01T05:04:49;-0.60;1.00
20284;DHT22;10301;50.832;4.080;2023-03-01T05:07:15;-0.60;1.00
20284;DHT22;10301;50.832;4.080;2023-03-01T05:09:48;-0.60;1.00
20284;DHT22;10301;50.832;4.080;2023-03-01T05:12:14;-0.40;1.00
20284;DHT22;10301;50.832;4.080;2023-03-01T05:14:41;-0.30;1.00
20284;DHT22;10301;50.832;4.080;2023-03-01T05:17:07;-0.20;99.90
20284;DHT22;10301;50.832;4.080;2023-03-01T05:19:33;-0.10;99.90
20284;DHT22;10301;50.832;4.080;2023-03-01T05:21:59;-0.10;99.90
20284;DHT22;10301;50.832;4.080;2023-03-01T05:24:31;-0.20;99.90
20284;DHT22;10301;50.832;4.080;2023-03-01T05:26:56;-0.40;99.90
20284;DHT22;10301;50.832;4.080;2023-03-01T05:29:23;-0.40;1.00
20284;DHT22;10301;50.832;4.080;2023-03-01T05:31:57;-0.30;1.00
20284;DHT22;10301;50.832;4.080;2023-03-01T05:34:31;-0.30;1.00
20284;DHT22;10301;50.832;4.080;2023-03-01T05:36:58;-0.50;1.00
20284;DHT22;10301;50.832;4.080;2023-03-01T05:39:25;-0.40;1.00
20284;DHT22;10301;50.832;4.080;2023-03-01T05:41:59;-0.50;1.00
20284;DHT22;10301;50.832;4.080;2023-03-01T05:44:25;-0.50;1.00
20284;DHT22;10301;50.832;4.080;2023-03-01T05:46:51;-0.50;1.00
20284;DHT22;10301;50.832;4.080;2023-03-01T05:49:16;-0.60;1.00
20284;DHT22;10301;50.832;4.080;2023-03-01T05:51:47;-0.40;1.00
20284;DHT22;10301;50.832;4.080;2023-03-01T05:54:13;-0.30;1.00
20284;DHT22;10301;50.832;4.080;2023-03-01T05:56:38;-0.30;1.00
20284;DHT22;10301;50.832;4.080;2023-03-01T05:59:04;-0.40;1.00
20284;DHT22;10301;50.832;4.080;2023-03-01T06:01:31;-0.30;1.00
20284;DHT22;10301;50.832;4.080;2023-03-01T06:03:57;-0.20;1.00
20284;DHT22;10301;50.832;4.080;2023-03-01T06:06:23;-0.50;1.00
20284;DHT22;10301;50.832;4.080;2023-03-01T06:08:49;-0.40;1.00
20284;DHT22;10301;50.832;4.080;2023-03-01T06:11:15;-0.50;1.00
20284;DHT22;10301;50.832;4.080;2023-03-01T06:13:42;-0.50;1.00
20284;DHT22;10301;50.832;4.080;2023-03-01T06:16:08;-0.50;1.00
20284;DHT22;10301;50.832;4.080;2023-03-01T06:18:34;-0.50;1.00
20284;DHT22;10301;50.832;4.080;2023-03-01T06:21:00;-0.60;1.00
20284;DHT22;10301;50.832;4.080;2023-03-01T06:23:25;-0.60;1.00
20284;DHT22;10301;50.832;4.080;2023-03-01T06:25:51;-0.40;1.00
20284;DHT22;10301;50.832;4.080;2023-03-01T06:28:17;-0.50;1.00
20284;DHT22;10301;50.832;4.080;2023-03-01T06:30:43;-0.80;1.00
20284;DHT22;10301;50.832;4.080;2023-03-01T06:33:08;-0.90;1.00
20284;DHT22;10301;50.832;4.080;2023-03-01T06:35:34;-0.80;1.00
20284;DHT22;10301;50.832;4.080;2023-03-01T06:38:01;-0.80;1.00
20284;DHT22;10301;50.832;4.080;2023-03-01T06:40:28;-0.90;1.00
20284;DHT22;10301;50.832;4.080;2023-03-01T06:42:54;-1.10;1.00
20284;DHT22;10301;50.832;4.080;2023-03-01T06:45:20;-1.20;1.00
20284;DHT22;10301;50.832;4.080;2023-03-01T06:47:47;-1.00;1.00
20284;DHT22;10301;50.832;4.080;2023-03-01T06:50:14;-1.00;1.00
20284;DHT22;10301;50.832;4.080;2023-03-01T06:52:40;-1.10;1.00
20284;DHT22;10301;50.832;4.080;2023-03-01T06:55:06;-0.90;1.00
20284;DHT22;10301;50.832;4.080;2023-03-01T06:57:32;-0.80;1.00
20284;DHT22;10301;50.832;4.080;2023-03-01T06:59:58;-0.60;1.00
20284;DHT22;10301;50.832;4.080;2023-03-01T07:02:24;-0.60;1.00
20284;DHT22;10301;50.832;4.080;2023-03-01T07:04:50;-0.70;1.00
20284;DHT22;10301;50.832;4.080;2023-03-01T07:07:17;-0.60;1.00
20284;DHT22;10301;50.832;4.080;2023-03-01T07:09:44;-0.60;1.00
20284;DHT22;10301;50.832;4.080;2023-03-01T07:12:10;-0.70;1.00
20284;DHT22;10301;50.832;4.080;2023-03-01T07:14:35;-0.70;1.00
20284;DHT22;10301;50.832;4.080;2023-03-01T07:17:01;-0.70;1.00
20284;DHT22;10301;50.832;4.080;2023-03-01T07:19:27;-0.80;1.00
20284;DHT22;10301;50.832;4.080;2023-03-01T07:21:53;-0.80;1.00
20284;DHT22;10301;50.832;4.080;2023-03-01T07:24:19;-0.80;1.00
20284;DHT22;10301;50.832;4.080;2023-03-01T07:26:49;-0.80;1.00
20284;DHT22;10301;50.832;4.080;2023-03-01T07:29:15;-0.90;1.00
20284;DHT22;10301;50.832;4.080;2023-03-01T07:31:41;-0.80;1.00
20284;DHT22;10301;50.832;4.080;2023-03-01T07:34:06;-0.70;1.00
20284;DHT22;10301;50.832;4.080;2023-03-01T07:36:32;-0.70;1.00
20284;DHT22;10301;50.832;4.080;2023-03-01T07:38:58;-0.50;1.00
20284;DHT22;10301;50.832;4.080;2023-03-01T07:41:24;-0.60;1.00
20284;DHT22;10301;50.832;4.080;2023-03-01T07:43:49;-0.50;1.00
20284;DHT22;10301;50.832;4.080;2023-03-01T07:46:15;-0.40;1.00
20284;DHT22;10301;50.832;4.080;2023-03-01T07:48:41;-0.40;1.00
20284;DHT22;10301;50.832;4.080;2023-03-01T07:51:07;-0.40;1.00
20284;DHT22;10301;50.832;4.080;2023-03-01T07:53:33;-0.50;1.00
20284;DHT22;10301;50.832;4.080;2023-03-01T07:56:17;-0.40;1.00
20284;DHT22;10301;50.832;4.080;2023-03-01T07:58:44;-0.30;1.00
20284;DHT22;10301;50.832;4.080;2023-03-01T08:01:14;-0.30;1.00
20284;DHT22;10301;50.832;4.080;2023-03-01T08:03:40;-0.10;1.00
20284;DHT22;10301;50.832;4.080;2023-03-01T08:06:07;0.00;1.00
20284;DHT22;10301;50.832;4.080;2023-03-01T08:08:34;0.10;1.00
20284;DHT22;10301;50.832;4.080;2023-03-01T08:11:02;0.30;1.00
20284;DHT22;10301;50.832;4.080;2023-03-01T08:13:29;0.30;1.00
20284;DHT22;10301;50.832;4.080;2023-03-01T08:16:00;0.30;1.00
20284;DHT22;10301;50.832;4.080;2023-03-01T08:18:25;0.40;1.00
20284;DHT22;10301;50.832;4.080;2023-03-01T08:20:51;0.50;1.00
20284;DHT22;10301;50.832;4.080;2023-03-01T08:23:16;0.60;1.00
20284;DHT22;10301;50.832;4.080;2023-03-01T08:25:42;0.70;1.00
20284;DHT22;10301;50.832;4.080;2023-03-01T08:28:08;0.80;1.00
20284;DHT22;10301;50.832;4.080;2023-03-01T08:30:34;0.90;1.00
20284;DHT22;10301;50.832;4.080;2023-03-01T08:32:59;1.10;99.90
20284;DHT22;10301;50.832;4.080;2023-03-01T08:35:25;1.10;1.00
20284;DHT22;10301;50.832;4.080;2023-03-01T08:37:51;1.20;1.00
20284;DHT22;10301;50.832;4.080;2023-03-01T08:40:16;1.30;99.90
20284;DHT22;10301;50.832;4.080;2023-03-01T08:42:42;1.40;99.90
20284;DHT22;10301;50.832;4.080;2023-03-01T08:45:09;1.30;99.90
20284;DHT22;10301;50.832;4.080;2023-03-01T08:47:35;1.40;99.90
20284;DHT22;10301;50.832;4.080;2023-03-01T08:50:01;1.30;94.50
20284;DHT22;10301;50.832;4.080;2023-03-01T08:52:27;1.30;99.90
20284;DHT22;10301;50.832;4.080;2023-03-01T08:54:53;1.30;99.90
20284;DHT22;10301;50.832;4.080;2023-03-01T08:57:19;1.50;99.90
20284;DHT22;10301;50.832;4.080;2023-03-01T08:59:44;1.70;99.90
20284;DHT22;10301;50.832;4.080;2023-03-01T09:02:15;1.80;1.00
20284;DHT22;10301;50.832;4.080;2023-03-01T09:04:41;1.80;1.00
20284;DHT22;10301;50.832;4.080;2023-03-01T09:07:07;1.70;1.00
20284;DHT22;10301;50.832;4.080;2023-03-01T09:09:34;1.80;1.00
20284;DHT22;10301;50.832;4.080;2023-03-01T09:11:59;1.90;1.00
20284;DHT22;10301;50.832;4.080;2023-03-01T09:14:25;2.00;1.00
20284;DHT22;10301;50.832;4.080;2023-03-01T09:16:51;2.20;1.00
20284;DHT22;10301;50.832;4.080;2023-03-01T09:19:17;2.30;1.00
20284;DHT22;10301;50.832;4.080;2023-03-01T09:21:43;2.50;1.00
20284;DHT22;10301;50.832;4.080;2023-03-01T09:24:19;2.60;1.00
20284;DHT22;10301;50.832;4.080;2023-03-01T09:26:45;2.60;1.00
20284;DHT22;10301;50.832;4.080;2023-03-01T09:29:12;2.60;1.00
20284;DHT22;10301;50.832;4.080;2023-03-01T09:31:38;2.70;1.00
20284;DHT22;10301;50.832;4.080;2023-03-01T09:34:05;2.70;1.00
20284;DHT22;10301;50.832;4.080;2023-03-01T09:36:31;2.60;1.00
20284;DHT22;10301;50.832;4.080;2023-03-01T09:38:57;2.60;99.90
20284;DHT22;10301;50.832;4.080;2023-03-01T09:41:36;2.70;1.00
20284;DHT22;10301;50.832;4.080;2023-03-01T09:46:57;2.70;1.00
20284;DHT22;10301;50.832;4.080;2023-03-01T09:49:43;2.70;99.90
20284;DHT22;10301;50.832;4.080;2023-03-01T09:55:04;2.90;15.90
20284;DHT22;10301;50.832;4.080;2023-03-01T09:57:41;3.10;99.90
20284;DHT22;10301;50.832;4.080;2023-03-01T10:00:26;3.10;99.90
20284;DHT22;10301;50.832;4.080;2023-03-01T10:10:57;3.30;70.50
20284;DHT22;10301;50.832;4.080;2023-03-01T10:13:54;3.30;1.00
20284;DHT22;10301;50.832;4.080;2023-03-01T10:19:01;3.50;1.00
20284;DHT22;10301;50.832;4.080;2023-03-01T10:21:29;3.60;99.90
20284;DHT22;10301;50.832;4.080;2023-03-01T10:24:05;3.60;1.00
20284;DHT22;10301;50.832;4.080;2023-03-01T10:27:05;3.70;99.90
20284;DHT22;10301;50.832;4.080;2023-03-01T10:29:58;3.70;26.70
20284;DHT22;10301;50.832;4.080;2023-03-01T10:32:26;3.70;1.00
20284;DHT22;10301;50.832;4.080;2023-03-01T10:34:52;3.70;99.90
20284;DHT22;10301;50.832;4.080;2023-03-01T10:37:19;3.90;1.00
20284;DHT22;10301;50.832;4.080;2023-03-01T10:42:33;3.90;1.00
20284;DHT22;10301;50.832;4.080;2023-03-01T10:45:36;4.10;99.90
20284;DHT22;10301;50.832;4.080;2023-03-01T10:50:31;4.20;70.10
20284;DHT22;10301;50.832;4.080;2023-03-01T10:53:02;4.30;1.00
20284;DHT22;10301;50.832;4.080;2023-03-01T10:55:39;4.30;61.70
20284;DHT22;10301;50.832;4.080;2023-03-01T11:01:01;4.20;1.00
20284;DHT22;10301;50.832;4.080;2023-03-01T11:03:36;4.00;13.20
20284;DHT22;10301;50.832;4.080;2023-03-01T11:08:45;4.10;1.00
20284;DHT22;10301;50.832;4.080;2023-03-01T11:11:34;4.20;1.00
20284;DHT22;10301;50.832;4.080;2023-03-01T11:14:16;4.50;1.00
20284;DHT22;10301;50.832;4.080;2023-03-01T11:16:45;4.50;99.90
20284;DHT22;10301;50.832;4.080;2023-03-01T11:22:07;4.60;99.90
20284;DHT22;10301;50.832;4.080;2023-03-01T11:24:46;4.70;99.90
20284;DHT22;10301;50.832;4.080;2023-03-01T11:29:48;4.70;1.00
20284;DHT22;10301;50.832;4.080;2023-03-01T11:32:16;4.50;48.30
20284;DHT22;10301;50.832;4.080;2023-03-01T11:34:57;4.50;99.90
20284;DHT22;10301;50.832;4.080;2023-03-01T11:40:44;4.90;1.00
20284;DHT22;10301;50.832;4.080;2023-03-01T11:43:15;4.90;1.00
20284;DHT22;10301;50.832;4.080;2023-03-01T11:56:51;5.30;99.90
20284;DHT22;10301;50.832;4.080;2023-03-01T11:59:50;5.20;99.90
20284;DHT22;10301;50.832;4.080;2023-03-01T12:05:25;5.30;99.90
20284;DHT22;10301;50.832;4.080;2023-03-01T12:08:22;5.60;99.90
20284;DHT22;10301;50.832;4.080;2023-03-01T12:11:41;5.70;99.90
20284;DHT22;10301;50.832;4.080;2023-03-01T12:22:21;5.60;99.90
20284;DHT22;10301;50.832;4.080;2023-03-01T12:27:48;5.80;99.90
20284;DHT22;10301;50.832;4.080;2023-03-01T12:50:20;5.60;23.60
20284;DHT22;10301;50.832;4.080;2023-03-01T12:52:56;5.80;91.40
20284;DHT22;10301;50.832;4.080;2023-03-01T12:55:48;5.80;55.70
20284;DHT22;10301;50.832;4.080;2023-03-01T12:58:31;5.80;99.90
20284;DHT22;10301;50.832;4.080;2023-03-01T13:07:16;5.80;99.90
20284;DHT22;10301;50.832;4.080;2023-03-01T13:17:55;6.10;1.00
20284;DHT22;10301;50.832;4.080;2023-03-01T13:20:27;6.20;1.00
20284;DHT22;10301;50.832;4.080;2023-03-01T13:26:09;6.00;1.00
20284;DHT22;10301;50.832;4.080;2023-03-01T13:33:47;5.90;1.00
20284;DHT22;10301;50.832;4.080;2023-03-01T13:41:51;6.00;1.00
20284;DHT22;10301;50.832;4.080;2023-03-01T13:46:56;6.20;1.00
20284;DHT22;10301;50.832;4.080;2023-03-01T13:49:26;6.40;1.00
20284;DHT22;10301;50.832;4.080;2023-03-01T13:51:52;6.40;1.00
20284;DHT22;10301;50.832;4.080;2023-03-01T13:54:31;6.40;1.00
20284;DHT22;10301;50.832;4.080;2023-03-01T13:57:00;6.20;1.00
20284;DHT22;10301;50.832;4.080;2023-03-01T13:59:26;6.20;1.00
20284;DHT22;10301;50.832;4.080;2023-03-01T14:02:01;6.20;1.00
20284;DHT22;10301;50.832;4.080;2023-03-01T14:04:29;6.30;1.00
20284;DHT22;10301;50.832;4.080;2023-03-01T14:07:32;6.40;1.00
20284;DHT22;10301;50.832;4.080;2023-03-01T14:10:02;6.30;1.00
20284;DHT22;10301;50.832;4.080;2023-03-01T14:12:52;6.60;1.00
20284;DHT22;10301;50.832;4.080;2023-03-01T14:20:28;6.60;1.00
20284;DHT22;10301;50.832;4.080;2023-03-01T14:23:00;6.60;1.00
20284;DHT22;10301;50.832;4.080;2023-03-01T14:25:32;6.60;1.00
20284;DHT22;10301;50.832;4.080;2023-03-01T14:30:49;6.50;1.00
20284;DHT22;10301;50.832;4.080;2023-03-01T14:33:35;6.60;1.00
20284;DHT22;10301;50.832;4.080;2023-03-01T14:36:13;6.50;1.00
20284;DHT22;10301;50.832;4.080;2023-03-01T14:38:40;6.60;1.00
20284;DHT22;10301;50.832;4.080;2023-03-01T14:41:10;6.50;1.00
20284;DHT22;10301;50.832;4.080;2023-03-01T14:43:43;6.50;1.00
20284;DHT22;10301;50.832;4.080;2023-03-01T14:48:56;6.80;1.00
20284;DHT22;10301;50.832;4.080;2023-03-01T14:51:23;6.80;1.00
20284;DHT22;10301;50.832;4.080;2023-03-01T14:53:50;6.60;1.00
20284;DHT22;10301;50.832;4.080;2023-03-01T14:56:16;6.60;1.00
20284;DHT22;10301;50.832;4.080;2023-03-01T14:58:46;6.70;1.00
20284;DHT22;10301;50.832;4.080;2023-03-01T15:01:17;6.80;1.00
20284;DHT22;10301;50.832;4.080;2023-03-01T15:03:46;6.70;1.00
20284;DHT22;10301;50.832;4.080;2023-03-01T15:06:15;6.60;1.00
20284;DHT22;10301;50.832;4.080;2023-03-01T15:08:45;6.80;1.00
20284;DHT22;10301;50.832;4.080;2023-03-01T15:11:31;6.70;1.00
20284;DHT22;10301;50.832;4.080;2023-03-01T15:13:58;6.60;1.00
20284;DHT22;10301;50.832;4.080;2023-03-01T15:16:29;6.60;1.00
20284;DHT22;10301;50.832;4.080;2023-03-01T15:19:05;6.60;1.00
20284;DHT22;10301;50.832;4.080;2023-03-01T15:21:36;6.80;1.00
20284;DHT22;10301;50.832;4.080;2023-03-01T15:24:23;6.80;1.00
20284;DHT22;10301;50.832;4.080;2023-03-01T15:26:58;6.80;1.00
20284;DHT22;10301;50.832;4.080;2023-03-01T15:29:29;6.80;1.00
20284;DHT22;10301;50.832;4.080;2023-03-01T15:32:32;6.80;1.00
20284;DHT22;10301;50.832;4.080;2023-03-01T15:34:50;6.80;1.00
20284;DHT22;10301;50.832;4.080;2023-03-01T15:37:45;6.90;1.00
20284;DHT22;10301;50.832;4.080;2023-03-01T15:40:24;6.80;1.00
20284;DHT22;10301;50.832;4.080;2023-03-01T15:42:58;6.70;1.00
20284;DHT22;10301;50.832;4.080;2023-03-01T15:45:26;6.70;1.00
20284;DHT22;10301;50.832;4.080;2023-03-01T15:47:57;6.80;1.00
20284;DHT22;10301;50.832;4.080;2023-03-01T15:50:25;6.80;1.00
20284;DHT22;10301;50.832;4.080;2023-03-01T15:52:52;6.70;1.00
20284;DHT22;10301;50.832;4.080;2023-03-01T15:55:22;6.70;1.00
20284;DHT22;10301;50.832;4.080;2023-03-01T15:57:49;6.70;1.00
20284;DHT22;10301;50.832;4.080;2023-03-01T16:00:16;6.70;1.00
20284;DHT22;10301;50.832;4.080;2023-03-01T16:02:43;6.70;1.00
20284;DHT22;10301;50.832;4.080;2023-03-01T16:05:20;6.60;1.00
20284;DHT22;10301;50.832;4.080;2023-03-01T16:07:46;6.70;1.00
20284;DHT22;10301;50.832;4.080;2023-03-01T16:10:11;6.80;1.00
20284;DHT22;10301;50.832;4.080;2023-03-01T16:12:37;6.80;1.00
20284;DHT22;10301;50.832;4.080;2023-03-01T16:15:07;6.70;1.00
20284;DHT22;10301;50.832;4.080;2023-03-01T16:17:37;6.80;1.00
20284;DHT22;10301;50.832;4.080;2023-03-01T16:20:03;6.70;1.00
20284;DHT22;10301;50.832;4.080;2023-03-01T16:22:29;6.50;1.00
20284;DHT22;10301;50.832;4.080;2023-03-01T16:24:55;6.40;1.00
20284;DHT22;10301;50.832;4.080;2023-03-01T16:27:20;6.40;1.00
20284;DHT22;10301;50.832;4.080;2023-03-01T16:29:46;6.30;1.00
20284;DHT22;10301;50.832;4.080;2023-03-01T16:32:12;6.30;1.00
20284;DHT22;10301;50.832;4.080;2023-03-01T16:34:37;6.30;14.30
20284;DHT22;10301;50.832;4.080;2023-03-01T16:37:03;6.30;54.80
20284;DHT22;10301;50.832;4.080;2023-03-01T16:39:29;6.20;1.00
20284;DHT22;10301;50.832;4.080;2023-03-01T16:41:55;6.20;1.00
20284;DHT22;10301;50.832;4.080;2023-03-01T16:44:20;6.10;99.90
20284;DHT22;10301;50.832;4.080;2023-03-01T16:46:46;6.20;74.50
20284;DHT22;10301;50.832;4.080;2023-03-01T16:49:11;6.30;72.00
20284;DHT22;10301;50.832;4.080;2023-03-01T16:51:37;6.50;1.00
20284;DHT22;10301;50.832;4.080;2023-03-01T16:54:03;6.30;47.10
20284;DHT22;10301;50.832;4.080;2023-03-01T16:56:30;6.30;74.70
20284;DHT22;10301;50.832;4.080;2023-03-01T16:58:58;6.20;99.90
20284;DHT22;10301;50.832;4.080;2023-03-01T17:01:23;6.10;99.90
20284;DHT22;10301;50.832;4.080;2023-03-01T17:03:50;6.20;99.90
20284;DHT22;10301;50.832;4.080;2023-03-01T17:06:19;6.30;99.90
20284;DHT22;10301;50.832;4.080;2023-03-01T17:08:46;6.40;72.40
20284;DHT22;10301;50.832;4.080;2023-03-01T17:11:14;6.40;99.90
20284;DHT22;10301;50.832;4.080;2023-03-01T17:13:40;6.20;44.60
20284;DHT22;10301;50.832;4.080;2023-03-01T17:16:09;6.10;96.60
20284;DHT22;10301;50.832;4.080;2023-03-01T17:18:35;6.00;99.90
20284;DHT22;10301;50.832;4.080;2023-03-01T17:21:01;5.80;99.90
20284;DHT22;10301;50.832;4.080;2023-03-01T17:23:28;5.60;99.90
20284;DHT22;10301;50.832;4.080;2023-03-01T17:25:54;5.50;99.90
20284;DHT22;10301;50.832;4.080;2023-03-01T17:28:25;5.40;99.90
20284;DHT22;10301;50.832;4.080;2023-03-01T17:30:51;5.30;1.00
20284;DHT22;10301;50.832;4.080;2023-03-01T17:33:18;5.30;1.00
20284;DHT22;10301;50.832;4.080;2023-03-01T17:35:44;5.20;1.00
20284;DHT22;10301;50.832;4.080;2023-03-01T17:38:12;5.30;1.00
20284;DHT22;10301;50.832;4.080;2023-03-01T17:40:40;5.20;1.00
20284;DHT22;10301;50.832;4.080;2023-03-01T17:43:06;5.20;1.00
20284;DHT22;10301;50.832;4.080;2023-03-01T17:45:32;5.30;1.00
20284;DHT22;10301;50.832;4.080;2023-03-01T17:47:58;5.20;1.00
20284;DHT22;10301;50.832;4.080;2023-03-01T17:50:23;5.30;1.00
20284;DHT22;10301;50.832;4.080;2023-03-01T17:52:49;5.10;1.00
20284;DHT22;10301;50.832;4.080;2023-03-01T17:55:15;5.00;1.00
20284;DHT22;10301;50.832;4.080;2023-03-01T17:57:41;5.00;1.00
20284;DHT22;10301;50.832;4.080;2023-03-01T18:00:09;4.90;1.00
20284;DHT22;10301;50.832;4.080;2023-03-01T18:02:36;4.90;1.00
20284;DHT22;10301;50.832;4.080;2023-03-01T18:05:01;5.00;1.00
20284;DHT22;10301;50.832;4.080;2023-03-01T18:07:28;5.10;1.00
20284;DHT22;10301;50.832;4.080;2023-03-01T18:09:54;5.00;1.00
20284;DHT22;10301;50.832;4.080;2023-03-01T18:12:19;4.90;1.00